createdAt,value
2022-12-06T00:03:17.192Z,100.00
2022-12-06T00:13:25.479Z,100.00
2022-12-06T00:16:29.280Z,100.00
2022-12-06T00:22:35.568Z,100.00
2022-12-06T00:25:30.613Z,100.00
2022-12-06T00:37:27.049Z,100.00
2022-12-06T00:40:31.050Z,100.00
2022-12-06T00:43:44.590Z,100.00
2022-12-06T01:00:26.038Z,100.00
2022-12-06T01:06:55.444Z,100.00
2022-12-06T01:13:10.534Z,100.00
2022-12-06T02:00:13.143Z,100.00
2022-12-06T02:03:26.311Z,100.00
2022-12-06T02:10:17.753Z,100.00
2022-12-06T02:20:41.858Z,100.00
2022-12-06T02:30:47.706Z,100.00
2022-12-06T03:01:27.048Z,100.00
2022-12-06T03:04:48.204Z,100.00
2022-12-06T03:08:07.628Z,100.00
2022-12-06T03:18:11.063Z,100.00
2022-12-06T03:24:43.512Z,100.00
2022-12-06T03:57:01.266Z,100.00
2022-12-06T04:03:38.376Z,100.00
2022-12-06T04:06:51.241Z,100.00
2022-12-06T04:33:57.930Z,100.00
2022-12-06T04:37:14.879Z,100.00
2022-12-06T04:40:06.800Z,100.00
2022-12-06T04:46:56.595Z,100.00
2022-12-06T05:06:58.873Z,100.00
2022-12-06T05:16:46.149Z,100.00
2022-12-06T05:20:04.396Z,100.00
2022-12-06T05:33:19.241Z,100.00
2022-12-06T05:36:29.802Z,100.00
2022-12-06T05:43:05.247Z,100.00
2022-12-06T05:50:04.832Z,100.00
2022-12-06T06:20:08.021Z,99.05
2022-12-06T06:22:56.170Z,99.18
2022-12-06T06:28:51.805Z,98.46
2022-12-06T06:34:32.488Z,98.75
2022-12-06T06:37:25.450Z,98.32
2022-12-06T06:40:46.208Z,98.54
2022-12-06T06:43:22.615Z,98.52
2022-12-06T06:46:43.837Z,98.78
2022-12-06T07:02:00.144Z,98.71
2022-12-06T07:04:56.910Z,98.77
2022-12-06T07:07:48.923Z,98.57
2022-12-06T07:10:22.358Z,98.41
2022-12-06T07:16:38.115Z,98.88
2022-12-06T07:19:16.498Z,99.01
2022-12-06T07:28:02.880Z,99.69
2022-12-06T07:30:54.953Z,99.30
2022-12-06T07:36:24.187Z,98.98
2022-12-06T07:39:10.149Z,99.09
2022-12-06T07:45:09.826Z,99.14
2022-12-06T07:51:02.343Z,99.34
2022-12-06T07:54:24.165Z,99.31
2022-12-06T07:57:22.558Z,99.40
2022-12-06T08:00:20.052Z,99.74
2022-12-06T08:03:06.891Z,99.87
2022-12-06T08:05:49.426Z,99.53
2022-12-06T08:08:28.173Z,99.91
2022-12-06T08:11:10.253Z,99.98
2022-12-06T08:14:24.192Z,99.58
2022-12-06T08:17:27.393Z,99.82
2022-12-06T08:20:16.949Z,99.44
2022-12-06T08:22:57.821Z,100.00
2022-12-06T08:25:37.453Z,99.59
2022-12-06T08:28:38.239Z,99.47
2022-12-06T08:31:19.188Z,99.83
2022-12-06T08:37:03.169Z,99.35
2022-12-06T08:39:52.106Z,100.00
2022-12-06T08:42:57.908Z,99.76
2022-12-06T08:45:56.070Z,99.65
2022-12-06T08:48:41.275Z,100.00
2022-12-06T08:51:46.969Z,99.56
2022-12-06T08:54:38.130Z,100.00
2022-12-06T08:57:27.608Z,99.08
2022-12-06T09:00:33.708Z,99.80
2022-12-06T09:03:39.521Z,99.57
2022-12-06T09:06:22.339Z,99.48
2022-12-06T09:08:58.552Z,99.50
2022-12-06T09:11:58.744Z,99.43
2022-12-06T09:14:49.884Z,99.30
2022-12-06T09:17:41.904Z,99.82
2022-12-06T09:23:43.313Z,98.90
2022-12-06T09:26:32.596Z,98.80
2022-12-06T09:29:14.214Z,99.17
2022-12-06T09:31:51.574Z,99.59
2022-12-06T09:37:58.888Z,98.66
2022-12-06T09:41:10.720Z,99.53
2022-12-06T09:44:02.840Z,99.08
2022-12-06T09:46:57.543Z,99.73
2022-12-06T09:50:07.708Z,99.44
2022-12-06T09:53:21.662Z,99.72
2022-12-06T09:56:42.864Z,99.67
2022-12-06T09:59:41.685Z,99.38
2022-12-06T10:02:55.515Z,99.22
2022-12-06T10:06:22.113Z,99.58
2022-12-06T10:09:22.168Z,99.19
2022-12-06T10:12:12.780Z,99.33
2022-12-06T10:15:11.510Z,99.14
2022-12-06T10:18:30.353Z,99.16
2022-12-06T10:21:16.013Z,99.48
2022-12-06T10:24:06.193Z,99.33
2022-12-06T10:26:58.461Z,99.63
2022-12-06T10:33:12.599Z,99.60
2022-12-06T10:36:03.687Z,99.86
2022-12-06T10:39:08.547Z,99.79
2022-12-06T10:42:11.811Z,99.46
2022-12-06T10:45:04.769Z,99.57
2022-12-06T10:48:04.263Z,99.47
2022-12-06T10:51:01.426Z,99.36
2022-12-06T10:54:08.025Z,99.56
2022-12-06T11:02:59.017Z,99.14
2022-12-06T11:06:28.992Z,99.16
2022-12-06T11:12:13.292Z,98.90
2022-12-06T11:14:54.976Z,98.76
2022-12-06T11:17:35.233Z,98.42
2022-12-06T11:20:25.847Z,98.38
2022-12-06T11:23:16.235Z,97.95
2022-12-06T11:26:25.275Z,97.54
2022-12-06T11:32:35.770Z,97.09
2022-12-06T11:35:39.977Z,97.30
2022-12-06T11:38:36.638Z,97.37
2022-12-06T11:41:11.534Z,98.05
2022-12-06T11:44:14.018Z,97.50
2022-12-06T11:46:59.626Z,97.32
2022-12-06T11:52:38.937Z,97.40
2022-12-06T11:59:04.145Z,96.94
2022-12-06T12:01:58.324Z,97.02
2022-12-06T12:05:20.676Z,96.40
2022-12-06T12:08:29.683Z,96.17
2022-12-06T12:11:45.470Z,95.78
2022-12-06T12:21:08.569Z,96.38
2022-12-06T12:27:32.706Z,96.61
2022-12-06T12:34:41.600Z,96.05
2022-12-06T12:37:11.306Z,96.10
2022-12-06T12:40:15.293Z,96.29
2022-12-06T12:46:34.484Z,96.60
2022-12-06T12:49:50.625Z,96.92
2022-12-06T12:59:31.003Z,97.75
2022-12-06T13:02:52.261Z,97.64
2022-12-06T13:08:42.959Z,97.83
2022-12-06T13:11:41.909Z,98.18
2022-12-06T13:14:19.451Z,99.17
2022-12-06T13:17:00.745Z,98.46
2022-12-06T13:22:44.888Z,96.77
2022-12-06T13:25:29.815Z,97.20
2022-12-06T13:28:11.850Z,96.67
2022-12-06T13:31:21.432Z,96.46
2022-12-06T13:34:00.267Z,97.07
2022-12-06T13:36:43.946Z,96.83
2022-12-06T13:39:50.884Z,97.52
2022-12-06T13:42:43.799Z,97.12
2022-12-06T13:45:41.809Z,97.15
2022-12-06T13:48:57.626Z,97.02
2022-12-06T13:51:51.133Z,97.01
2022-12-06T13:54:41.195Z,97.41
2022-12-06T13:57:26.212Z,97.75
2022-12-06T13:59:53.307Z,96.97
2022-12-06T14:02:46.865Z,97.55
2022-12-06T14:08:39.163Z,97.19
2022-12-06T14:11:33.987Z,97.54
2022-12-06T14:14:16.388Z,97.58
2022-12-06T14:16:50.472Z,97.72
2022-12-06T14:19:23.303Z,98.08
2022-12-06T14:22:09.773Z,98.36
2022-12-06T14:24:45.623Z,97.97
2022-12-06T14:27:16.350Z,98.34
2022-12-06T14:29:45.152Z,98.17
2022-12-06T14:32:11.927Z,97.98
2022-12-06T14:34:38.958Z,98.86
2022-12-06T14:37:18.459Z,98.27
2022-12-06T14:40:00.895Z,98.53
2022-12-06T14:42:38.839Z,98.24
2022-12-06T14:45:16.652Z,98.81
2022-12-06T14:47:46.774Z,99.04
2022-12-06T14:50:32.991Z,98.68
2022-12-06T14:53:10.244Z,98.34
2022-12-06T14:55:58.929Z,98.82
2022-12-06T14:58:28.279Z,98.59
2022-12-06T15:00:59.880Z,98.85
2022-12-06T15:03:33.278Z,98.57
2022-12-06T15:07:05.157Z,98.70
2022-12-06T15:09:53.501Z,99.23
2022-12-06T15:12:38.621Z,98.80
2022-12-06T15:15:45.262Z,99.35
2022-12-06T15:18:34.588Z,98.88
2022-12-06T15:27:21.652Z,99.69
2022-12-06T15:32:49.389Z,99.58
2022-12-06T15:35:37.970Z,99.70
2022-12-06T15:38:22.353Z,99.61
2022-12-06T15:40:59.344Z,99.68
2022-12-06T15:43:40.432Z,100.00
2022-12-06T15:50:00.635Z,100.00
2022-12-06T15:53:00.866Z,100.00
2022-12-06T15:56:32.013Z,100.00
2022-12-06T15:59:22.208Z,100.00
2022-12-06T16:08:50.867Z,100.00
2022-12-06T16:11:41.838Z,100.00
2022-12-06T16:14:18.739Z,100.00
2022-12-06T16:23:15.234Z,100.00
2022-12-06T16:26:07.924Z,100.00
2022-12-06T16:28:53.382Z,100.00
2022-12-06T16:34:49.994Z,100.00
2022-12-06T16:37:55.706Z,100.00
2022-12-06T16:41:11.201Z,100.00
2022-12-06T16:43:38.615Z,100.00
2022-12-06T16:46:21.282Z,100.00
2022-12-06T16:48:54.048Z,100.00
2022-12-06T16:52:01.265Z,99.74
2022-12-06T17:00:42.467Z,100.00
2022-12-06T17:03:12.736Z,100.00
2022-12-06T17:05:57.057Z,100.00
2022-12-06T17:08:30.291Z,100.00
2022-12-06T17:11:25.369Z,100.00
2022-12-06T17:14:23.820Z,100.00
2022-12-06T17:16:56.793Z,100.00
2022-12-06T17:19:29.471Z,100.00
2022-12-06T17:22:04.250Z,100.00
2022-12-06T17:24:39.089Z,100.00
2022-12-06T17:27:27.738Z,100.00
2022-12-06T17:30:17.754Z,99.80
2022-12-06T17:38:37.522Z,100.00
2022-12-06T17:41:13.873Z,100.00
2022-12-06T17:43:41.089Z,100.00
2022-12-06T17:46:55.335Z,100.00
2022-12-06T17:50:08.701Z,100.00
2022-12-06T17:52:41.020Z,100.00
2022-12-06T17:55:37.538Z,100.00
2022-12-06T17:58:10.153Z,100.00
2022-12-06T18:01:04.782Z,99.98
2022-12-06T18:03:44.636Z,100.00
2022-12-06T18:06:17.915Z,100.00
2022-12-06T18:09:07.198Z,100.00
2022-12-06T18:11:51.838Z,100.00
2022-12-06T18:14:36.199Z,100.00
2022-12-06T18:17:34.671Z,100.00
2022-12-06T18:20:40.580Z,100.00
2022-12-06T18:23:31.887Z,100.00
2022-12-06T18:26:46.495Z,100.00
2022-12-06T18:29:50.050Z,100.00
2022-12-06T18:32:47.936Z,100.00
2022-12-06T18:35:33.555Z,100.00
2022-12-06T18:38:25.188Z,100.00
2022-12-06T18:41:27.632Z,100.00
2022-12-06T18:50:15.781Z,100.00
2022-12-06T18:53:15.051Z,100.00
2022-12-06T18:55:56.709Z,100.00
2022-12-06T18:59:11.633Z,100.00
2022-12-06T19:02:02.974Z,100.00
2022-12-06T19:06:00.863Z,100.00
2022-12-06T19:11:46.474Z,100.00
2022-12-06T19:14:36.105Z,100.00
2022-12-06T19:17:28.919Z,100.00
2022-12-06T19:20:12.297Z,100.00
2022-12-06T19:23:11.039Z,100.00
2022-12-06T19:25:44.486Z,100.00
2022-12-06T19:28:37.526Z,100.00
2022-12-06T19:31:14.592Z,100.00
2022-12-06T19:33:53.090Z,100.00
2022-12-06T19:36:54.601Z,100.00
2022-12-06T19:40:15.758Z,100.00
2022-12-06T19:43:14.420Z,100.00
2022-12-06T19:46:15.034Z,100.00
2022-12-06T19:58:24.550Z,100.00
2022-12-06T20:01:29.361Z,100.00
2022-12-06T20:04:41.224Z,100.00
2022-12-06T20:07:44.358Z,100.00
2022-12-06T20:14:23.474Z,100.00
2022-12-06T20:17:41.370Z,100.00
2022-12-06T20:20:23.147Z,100.00
2022-12-06T20:23:20.779Z,100.00
2022-12-06T20:29:20.696Z,100.00
2022-12-06T20:31:58.169Z,100.00
2022-12-06T20:35:04.436Z,100.00
2022-12-06T20:41:15.662Z,100.00
2022-12-06T20:44:17.592Z,100.00
2022-12-06T20:53:14.352Z,100.00
2022-12-06T20:55:53.103Z,100.00
2022-12-06T21:01:45.052Z,100.00
2022-12-06T21:04:36.286Z,100.00
2022-12-06T21:20:13.324Z,100.00
2022-12-06T21:22:55.110Z,100.00
2022-12-06T21:25:43.514Z,100.00
2022-12-06T21:28:54.737Z,100.00
2022-12-06T21:38:32.255Z,100.00
2022-12-06T21:41:22.118Z,100.00
2022-12-06T21:43:59.468Z,100.00
2022-12-06T21:49:27.081Z,100.00
2022-12-06T21:52:07.578Z,100.00
2022-12-06T21:55:03.388Z,100.00
2022-12-06T21:57:51.273Z,100.00
2022-12-06T22:00:55.164Z,100.00
2022-12-06T22:04:33.085Z,100.00
2022-12-06T22:07:12.096Z,100.00
2022-12-06T22:09:59.117Z,100.00
2022-12-06T22:13:01.152Z,100.00
2022-12-06T22:15:39.326Z,100.00
2022-12-06T22:18:24.296Z,100.00
2022-12-06T22:21:11.378Z,100.00
2022-12-06T22:26:37.948Z,100.00
2022-12-06T22:29:16.755Z,100.00
2022-12-06T22:32:15.320Z,100.00
2022-12-06T22:35:00.491Z,100.00
2022-12-06T22:37:29.978Z,100.00
2022-12-06T22:40:05.461Z,100.00
2022-12-06T22:42:42.611Z,100.00
2022-12-06T22:45:19.893Z,100.00
2022-12-06T22:47:56.935Z,100.00
2022-12-06T22:50:32.724Z,100.00
2022-12-06T22:53:10.916Z,100.00
2022-12-06T22:58:59.929Z,100.00
2022-12-06T23:01:42.747Z,100.00
2022-12-06T23:04:43.002Z,99.48
2022-12-06T23:07:21.517Z,100.00
2022-12-06T23:10:05.603Z,99.99
2022-12-06T23:12:57.900Z,100.00
2022-12-06T23:15:39.012Z,99.61
2022-12-06T23:22:22.012Z,99.66
2022-12-06T23:25:22.809Z,100.00
2022-12-06T23:28:16.474Z,100.00
2022-12-06T23:35:04.090Z,99.76
2022-12-06T23:37:35.582Z,100.00
2022-12-06T23:40:14.451Z,100.00
2022-12-06T23:45:57.508Z,100.00
2022-12-06T23:48:50.527Z,100.00
2022-12-06T23:54:55.731Z,100.00
2022-12-06T23:57:55.443Z,100.00
